world map with SIR marked

SIR - Airport

This information may not be accurate or current and is not valid for navigation or flight planning. No warranty of fitness for any purpose is made or implied.

flag of Valaisflag of Switzerland

Donate via PayPal

Additional information is available on the NEW Great Circle Mapper

Location
City:  Sion, Valais, Switzerland
Near (Alt.):Sitten
ICAO / IATA:LSGS / SIR

Details
Type:Airport (Aerodrome, Airfield)
Use:Public/Civil, Military
Latitude:46°13'11"N (46.219592)
Longitude:7°19'36"E (7.326764)
Datum:WGS 1984
Elevation:1585 ft (483 m)
Runways:2
Longest:6562 × 131 ft (2000 × 40 m)

Time
Timezone:UTC+1 (DST+4)
Local Time:

Weather
METAR:LSGS  120620Z 10004KT CAVOK M02/M07 Q1022

Related Locations
Nearby:
Farthest:CHT: 12186 mi / 19612 km
Waitangi [Tuuta], CIT, NZ

Find:

   beyond  
but within

Other Information
Maps:
Sources:

  


 


Great Circle Mapper   Great Circle Mapper
Great Circle Mapper FAQ   Great Circle Mapper FAQ
  Karl's Home Page
KLSē   KLSē Home
   GC on Facebook
Airlines of the World   Airlines of the World
Donate via PayPal


Copyright © 2004-2018, Karl L. Swartz. All rights reserved.
All trademarks mentioned herein belong to their respective owners.

Please see credits for attribution and copyright information.

Karl Swartz <karl@kls2.com>
  Powered by FreeBSD
Valid HTML 4.01!
Labeled with ICRA
hCard Microformat
Geo Microformat